Time;durP1;ratioP1;P1;durP2;ratioP2;P2;SDS_P1;SDS_P2;PMS_P1;PMS_P2;Temp;Humidity;BMP_temperature;BMP_pressure;BME280_temperature;BME280_humidity;BME280_pressure;Samples;Min_cycle;Max_cycle;Signal;HPM_P1;HPM_P2
2023/11/19 00:00:18;;;;;;;12.45;10.95;;;9.00;99.90;;;;;;5055552;28;20555;-84
2023/11/19 00:02:47;;;;;;;15.18;13.68;;;8.90;99.90;;;;;;5054667;28;20439;-83
2023/11/19 00:05:14;;;;;;;9.50;8.48;;;9.00;99.90;;;;;;5054074;28;20231;-80
2023/11/19 00:07:44;;;;;;;16.00;14.45;;;8.90;99.90;;;;;;5053453;28;20439;-80
2023/11/19 00:10:12;;;;;;;18.23;16.42;;;8.90;99.90;;;;;;5056312;28;20270;-79
2023/11/19 00:12:42;;;;;;;11.75;9.93;;;8.90;99.90;;;;;;5060060;28;20260;-79
2023/11/19 00:15:12;;;;;;;15.25;12.73;;;8.90;99.90;;;;;;5060390;28;20473;-80
2023/11/19 00:17:44;;;;;;;13.45;11.68;;;8.90;99.90;;;;;;5061859;28;20552;-80
2023/11/19 00:20:12;;;;;;;19.55;17.02;;;8.90;99.90;;;;;;5039900;28;20595;-83
2023/11/19 00:22:42;;;;;;;29.10;22.25;;;8.90;99.90;;;;;;5050712;28;20266;-84
2023/11/19 00:25:31;;;;;;;12.98;11.68;;;8.90;99.90;;;;;;5052176;28;20654;-87
2023/11/19 00:28:28;;;;;;;16.52;13.55;;;8.80;99.90;;;;;;5059038;28;20235;-88
2023/11/19 00:30:55;;;;;;;21.85;19.33;;;8.80;99.90;;;;;;5039108;28;20439;-85
2023/11/19 00:33:22;;;;;;;13.75;12.30;;;8.70;99.90;;;;;;5053421;28;20449;-87
2023/11/19 00:35:49;;;;;;;19.95;14.68;;;8.60;99.90;;;;;;5055378;28;20247;-86
2023/11/19 00:38:18;;;;;;;17.80;13.90;;;8.60;99.90;;;;;;5046211;28;20543;-79
2023/11/19 00:40:49;;;;;;;19.55;14.48;;;8.70;99.90;;;;;;5044401;28;20224;-82
2023/11/19 00:43:22;;;;;;;10.73;9.73;;;8.70;99.90;;;;;;5025038;28;20250;-85
2023/11/19 00:45:53;;;;;;;18.25;14.70;;;8.70;99.90;;;;;;5030250;28;20220;-80
2023/11/19 00:48:23;;;;;;;22.42;18.83;;;8.60;99.90;;;;;;5045662;28;20564;-81
2023/11/19 00:50:53;;;;;;;14.82;12.68;;;8.70;99.90;;;;;;5062562;28;20810;-85
2023/11/19 00:56:12;;;;;;;15.73;12.30;;;8.80;99.90;;;;;;5047168;28;20229;-88
2023/11/19 00:58:45;;;;;;;28.98;23.08;;;8.80;99.90;;;;;;5045314;28;20218;-83
2023/11/19 01:01:13;;;;;;;8.90;8.07;;;8.70;99.90;;;;;;5048313;28;20359;-81
2023/11/19 01:03:45;;;;;;;33.38;25.33;;;8.70;99.90;;;;;;5047370;28;20922;-79
2023/11/19 01:06:14;;;;;;;14.82;12.70;;;8.70;99.90;;;;;;5050232;28;20504;-80
2023/11/19 01:08:43;;;;;;;26.58;21.88;;;8.60;99.90;;;;;;5054263;28;20220;-80
2023/11/19 01:11:20;;;;;;;20.58;17.45;;;8.60;99.90;;;;;;5052526;28;20221;-82
2023/11/19 01:13:49;;;;;;;42.78;33.63;;;8.60;99.90;;;;;;5052497;28;20304;-80
2023/11/19 01:16:20;;;;;;;18.40;14.55;;;8.60;99.90;;;;;;5049925;28;20244;-82
2023/11/19 01:18:48;;;;;;;11.93;10.73;;;8.60;99.90;;;;;;5046202;28;20525;-84
2023/11/19 01:21:15;;;;;;;7.57;6.88;;;8.70;99.90;;;;;;5050081;28;20719;-79
2023/11/19 01:23:44;;;;;;;8.45;7.68;;;8.60;99.90;;;;;;5051872;28;20563;-82
2023/11/19 01:26:10;;;;;;;8.23;6.57;;;8.60;99.90;;;;;;5052721;28;20559;-78
2023/11/19 01:28:39;;;;;;;7.93;7.13;;;8.60;99.90;;;;;;5051268;28;20220;-78
2023/11/19 01:31:08;;;;;;;7.97;7.28;;;8.60;99.90;;;;;;5053534;28;20227;-83
2023/11/19 01:33:36;;;;;;;8.48;7.70;;;8.60;99.90;;;;;;5047611;28;20228;-78
2023/11/19 01:36:04;;;;;;;7.95;7.15;;;8.70;99.90;;;;;;5045653;28;20224;-81
2023/11/19 01:38:32;;;;;;;8.38;7.10;;;8.60;99.90;;;;;;5046069;28;20255;-78
2023/11/19 01:41:01;;;;;;;10.25;7.88;;;8.70;99.90;;;;;;5050102;28;20233;-78
2023/11/19 01:43:38;;;;;;;6.60;5.95;;;8.60;99.90;;;;;;5049125;28;20229;-80
2023/11/19 01:46:09;;;;;;;7.75;7.05;;;8.50;99.90;;;;;;5056196;28;20259;-78
2023/11/19 01:48:39;;;;;;;7.05;6.40;;;8.50;99.90;;;;;;5058773;28;20259;-80
2023/11/19 01:51:08;;;;;;;7.18;6.50;;;8.50;99.90;;;;;;5022343;28;20225;-83
2023/11/19 01:53:36;;;;;;;7.80;6.53;;;8.50;99.90;;;;;;5050485;28;20227;-85
2023/11/19 01:56:08;;;;;;;7.22;6.63;;;8.40;99.90;;;;;;5057394;28;20216;-91
2023/11/19 02:04:04;;;;;;;9.20;7.35;;;8.50;99.90;;;;;;5057838;28;20262;-84
2023/11/19 02:06:33;;;;;;;7.40;6.65;;;8.50;99.90;;;;;;5060981;28;20232;-92
2023/11/19 02:09:07;;;;;;;7.95;7.25;;;8.50;99.90;;;;;;5040225;28;20282;-85
2023/11/19 02:11:35;;;;;;;7.63;6.93;;;8.50;99.90;;;;;;5060572;28;20684;-79
2023/11/19 02:14:03;;;;;;;8.95;8.05;;;8.40;99.90;;;;;;5058683;28;20692;-80
2023/11/19 02:16:36;;;;;;;7.32;6.75;;;8.40;99.90;;;;;;5061245;28;20236;-91
2023/11/19 02:19:05;;;;;;;6.60;5.85;;;8.30;99.90;;;;;;5058176;28;20228;-83
2023/11/19 02:21:36;;;;;;;7.00;6.15;;;8.20;99.90;;;;;;5061354;28;20319;-86
2023/11/19 02:24:08;;;;;;;7.13;6.50;;;8.20;99.90;;;;;;5056599;28;20636;-82
2023/11/19 02:26:45;;;;;;;8.02;6.20;;;8.20;99.90;;;;;;5058804;28;20243;-84
2023/11/19 02:29:14;;;;;;;6.00;5.47;;;8.30;99.90;;;;;;5055914;28;20601;-82
2023/11/19 02:31:41;;;;;;;6.40;5.80;;;8.20;99.90;;;;;;5060363;28;20229;-81
2023/11/19 02:34:08;;;;;;;7.28;6.68;;;8.20;99.90;;;;;;5052118;28;20227;-90
2023/11/19 02:36:35;;;;;;;7.10;6.53;;;8.20;99.90;;;;;;5060954;28;20232;-79
2023/11/19 02:39:10;;;;;;;6.82;6.13;;;8.10;99.90;;;;;;5062100;28;20216;-79
2023/11/19 02:41:40;;;;;;;7.28;6.53;;;8.10;99.90;;;;;;5059295;28;20605;-79
2023/11/19 02:44:07;;;;;;;7.63;6.85;;;8.00;99.90;;;;;;5051394;28;20240;-79
2023/11/19 02:46:36;;;;;;;7.43;6.57;;;8.00;99.90;;;;;;5055625;28;20223;-83
2023/11/19 02:49:03;;;;;;;6.20;5.65;;;8.00;99.90;;;;;;5049211;28;20220;-82
2023/11/19 02:51:30;;;;;;;6.22;5.63;;;7.90;99.90;;;;;;5053423;28;20268;-82
2023/11/19 02:53:58;;;;;;;5.90;5.25;;;8.00;99.90;;;;;;5053997;28;20227;-82
2023/11/19 02:56:26;;;;;;;6.47;5.75;;;8.00;99.90;;;;;;5055718;28;20281;-83
2023/11/19 02:58:54;;;;;;;6.10;5.55;;;7.90;99.90;;;;;;5054338;28;20225;-83
2023/11/19 03:01:29;;;;;;;7.13;5.25;;;7.90;99.90;;;;;;5051751;28;20304;-79
2023/11/19 03:03:58;;;;;;;5.50;5.10;;;7.90;99.90;;;;;;5066037;28;20227;-78
2023/11/19 03:14:47;;;;;;;5.63;4.90;;;8.10;99.90;;;;;;5075819;28;20246;-80
2023/11/19 03:17:18;;;;;;;5.05;4.65;;;8.10;99.90;;;;;;5076468;28;20273;-80
2023/11/19 03:19:48;;;;;;;6.00;5.43;;;8.20;99.90;;;;;;5076552;28;20224;-86
2023/11/19 03:22:18;;;;;;;9.43;4.97;;;8.20;99.90;;;;;;5077400;28;20224;-86
2023/11/19 03:24:45;;;;;;;5.72;5.13;;;8.20;99.90;;;;;;5075409;28;20224;-84
2023/11/19 03:27:12;;;;;;;5.10;4.60;;;8.20;99.90;;;;;;5076056;28;20228;-79
2023/11/19 03:29:39;;;;;;;5.22;4.75;;;8.20;99.90;;;;;;5076720;28;20673;-80
2023/11/19 03:32:07;;;;;;;4.53;4.13;;;8.30;99.90;;;;;;5075519;28;20236;-79
2023/11/19 03:34:34;;;;;;;5.55;5.00;;;8.40;99.90;;;;;;5063386;28;20213;-78
2023/11/19 03:37:04;;;;;;;5.43;5.03;;;8.40;99.90;;;;;;5035759;28;20225;-80
2023/11/19 03:39:31;;;;;;;5.68;5.18;;;8.30;99.90;;;;;;5036585;28;20229;-80
2023/11/19 03:41:59;;;;;;;6.18;4.68;;;8.30;99.90;;;;;;5051282;28;20219;-83
2023/11/19 03:44:28;;;;;;;5.93;5.40;;;8.40;99.90;;;;;;5076136;28;20761;-78
2023/11/19 03:47:06;;;;;;;4.47;4.18;;;8.20;99.90;;;;;;5066610;28;20311;-84
2023/11/19 03:49:42;;;;;;;6.97;6.45;;;8.20;99.90;;;;;;5061217;28;20551;-79
2023/11/19 03:52:10;;;;;;;6.55;5.40;;;8.20;99.90;;;;;;5076253;28;20228;-84
2023/11/19 03:54:37;;;;;;;6.00;5.40;;;8.30;99.90;;;;;;5074410;28;20234;-79
2023/11/19 03:57:05;;;;;;;6.20;5.70;;;8.30;99.90;;;;;;5058406;28;20228;-85
2023/11/19 03:59:33;;;;;;;7.07;6.43;;;8.30;99.90;;;;;;5065213;28;20220;-79
2023/11/19 04:02:00;;;;;;;6.03;5.50;;;8.30;99.90;;;;;;5072422;28;20235;-79
2023/11/19 04:04:29;;;;;;;6.60;5.72;;;8.20;99.90;;;;;;5055489;28;20227;-84
2023/11/19 04:06:56;;;;;;;7.55;5.85;;;8.20;99.90;;;;;;5044861;28;20617;-80
2023/11/19 04:09:24;;;;;;;6.55;6.05;;;8.10;99.90;;;;;;5054770;28;20227;-80
2023/11/19 04:11:51;;;;;;;6.75;6.15;;;8.10;99.90;;;;;;5054963;28;20316;-81
2023/11/19 04:14:19;;;;;;;7.10;5.70;;;8.00;99.90;;;;;;5056280;28;20259;-83
2023/11/19 04:16:51;;;;;;;6.30;5.70;;;8.10;99.90;;;;;;5054532;28;20563;-87
2023/11/19 04:19:18;;;;;;;6.78;6.10;;;8.10;99.90;;;;;;5055850;28;20310;-79
2023/11/19 04:21:45;;;;;;;6.45;5.85;;;8.10;99.90;;;;;;5054808;28;20287;-81
2023/11/19 04:24:14;;;;;;;7.07;6.45;;;8.10;99.90;;;;;;5056010;28;20221;-84
2023/11/19 04:26:44;;;;;;;6.97;6.28;;;8.10;99.90;;;;;;5055049;28;20565;-80
2023/11/19 04:29:13;;;;;;;6.63;6.03;;;8.10;99.90;;;;;;5055077;28;20212;-85
2023/11/19 04:31:41;;;;;;;6.88;6.10;;;8.10;99.90;;;;;;5054784;28;20311;-81
2023/11/19 04:34:09;;;;;;;8.60;5.88;;;8.10;99.90;;;;;;5052454;28;20360;-79
2023/11/19 04:36:37;;;;;;;7.03;6.43;;;8.10;99.90;;;;;;5035266;28;20313;-82
2023/11/19 04:39:08;;;;;;;7.97;7.28;;;8.10;99.90;;;;;;5034918;28;20249;-84
2023/11/19 04:41:35;;;;;;;6.78;6.13;;;8.10;99.90;;;;;;5045263;28;20237;-80
2023/11/19 04:44:04;;;;;;;6.85;5.95;;;8.10;99.90;;;;;;5072126;28;20286;-79
2023/11/19 04:46:31;;;;;;;5.80;5.30;;;8.10;99.90;;;;;;5069487;28;20235;-80
2023/11/19 04:48:58;;;;;;;7.38;6.60;;;8.20;99.90;;;;;;5036072;28;20611;-79
2023/11/19 04:51:30;;;;;;;8.07;7.38;;;8.10;99.90;;;;;;5035692;28;20300;-80
2023/11/19 04:53:57;;;;;;;7.05;6.35;;;8.20;99.90;;;;;;5035075;28;20225;-83
2023/11/19 04:56:24;;;;;;;7.30;6.60;;;8.20;99.90;;;;;;5067266;28;20223;-82
2023/11/19 04:58:51;;;;;;;7.90;7.10;;;8.20;99.90;;;;;;5073161;28;20277;-79
2023/11/19 05:01:19;;;;;;;8.32;7.53;;;8.20;99.90;;;;;;5071196;28;20224;-79
2023/11/19 05:03:46;;;;;;;7.90;7.10;;;8.10;99.90;;;;;;5051096;28;20336;-82
2023/11/19 05:06:13;;;;;;;8.13;7.28;;;8.10;99.90;;;;;;5043032;28;20225;-82
2023/11/19 05:08:40;;;;;;;8.10;7.35;;;8.10;99.90;;;;;;5042264;28;20576;-82
2023/11/19 05:11:11;;;;;;;9.57;6.95;;;8.10;99.90;;;;;;5053056;28;20731;-79
2023/11/19 05:13:39;;;;;;;8.20;7.50;;;8.10;99.90;;;;;;5039922;28;20235;-79
2023/11/19 05:16:07;;;;;;;8.00;7.30;;;8.00;99.90;;;;;;5023412;28;20233;-82
2023/11/19 05:18:37;;;;;;;7.57;6.97;;;8.00;99.90;;;;;;5034852;28;20263;-79
2023/11/19 05:21:04;;;;;;;9.25;7.10;;;8.00;99.90;;;;;;5039208;28;20220;-82
2023/11/19 05:23:31;;;;;;;8.10;7.35;;;8.00;99.90;;;;;;5033573;28;20291;-79
2023/11/19 05:25:58;;;;;;;7.47;6.75;;;8.00;99.90;;;;;;5043559;28;20663;-79
2023/11/19 05:28:25;;;;;;;9.00;7.00;;;8.10;99.90;;;;;;5052408;28;20312;-80
2023/11/19 05:30:56;;;;;;;7.88;7.28;;;8.00;99.90;;;;;;5054681;28;20225;-82
2023/11/19 05:33:23;;;;;;;6.53;6.03;;;8.10;99.90;;;;;;5053546;28;20235;-82
2023/11/19 05:35:52;;;;;;;7.00;6.30;;;8.10;99.90;;;;;;5054131;28;20228;-80
2023/11/19 05:38:18;;;;;;;6.95;6.25;;;8.10;99.90;;;;;;5046807;28;20217;-83
2023/11/19 05:40:48;;;;;;;6.53;5.93;;;8.10;99.90;;;;;;5034836;28;20236;-82
2023/11/19 05:43:16;;;;;;;7.13;6.10;;;8.10;99.90;;;;;;5022620;28;20248;-82
2023/11/19 05:45:43;;;;;;;7.32;5.53;;;8.00;99.90;;;;;;5033825;28;20312;-81
2023/11/19 05:48:10;;;;;;;6.30;5.78;;;8.00;99.90;;;;;;5034691;28;20225;-82
2023/11/19 05:50:39;;;;;;;6.00;5.25;;;8.00;99.90;;;;;;5034025;28;20670;-80
2023/11/19 05:53:10;;;;;;;6.57;5.57;;;8.10;99.90;;;;;;5033872;28;20299;-79
2023/11/19 05:55:48;;;;;;;7.57;5.78;;;8.10;99.90;;;;;;5034260;28;20229;-80
2023/11/19 05:58:16;;;;;;;6.88;5.78;;;8.10;99.90;;;;;;5033247;28;20654;-79
2023/11/19 06:00:43;;;;;;;7.53;6.72;;;8.10;99.90;;;;;;5034094;28;20231;-79
2023/11/19 06:03:10;;;;;;;6.03;5.53;;;8.10;99.90;;;;;;5032834;28;20320;-79
2023/11/19 06:05:37;;;;;;;7.10;6.28;;;8.10;99.90;;;;;;5033238;28;20229;-79
2023/11/19 06:08:04;;;;;;;7.10;6.32;;;8.10;99.90;;;;;;5032934;28;20225;-79
2023/11/19 06:10:32;;;;;;;5.82;5.32;;;8.10;99.90;;;;;;5033971;28;20249;-82
2023/11/19 06:12:59;;;;;;;5.80;4.90;;;8.10;99.90;;;;;;5035537;28;20244;-82
2023/11/19 06:15:27;;;;;;;5.88;5.38;;;8.00;99.90;;;;;;5033983;28;20308;-82
2023/11/19 06:18:01;;;;;;;6.20;5.70;;;8.10;99.90;;;;;;5024960;28;20679;-83
2023/11/19 06:20:29;;;;;;;6.57;6.07;;;8.10;99.90;;;;;;5033278;28;20229;-83
2023/11/19 06:22:56;;;;;;;5.97;5.35;;;8.10;99.90;;;;;;5092183;23;20245;-82
2023/11/19 06:25:45;;;;;;;6.85;6.25;;;8.10;99.90;;;;;;4980983;28;20318;-83
2023/11/19 06:28:13;;;;;;;5.97;5.47;;;8.20;99.90;;;;;;4994764;28;20281;-83
2023/11/19 06:30:41;;;;;;;7.03;6.38;;;8.30;99.90;;;;;;4993369;28;20241;-83
2023/11/19 06:33:08;;;;;;;6.00;5.50;;;8.40;99.90;;;;;;4994515;28;20227;-80
2023/11/19 06:35:38;;;;;;;6.20;5.70;;;8.40;99.90;;;;;;4993538;28;20237;-80
2023/11/19 06:38:05;;;;;;;5.78;5.28;;;8.30;99.90;;;;;;4993986;28;20222;-83
2023/11/19 06:40:32;;;;;;;6.10;5.60;;;8.30;99.90;;;;;;4993810;28;20227;-79
2023/11/19 06:43:02;;;;;;;5.85;5.35;;;8.40;99.90;;;;;;4994254;28;20253;-79
2023/11/19 06:45:29;;;;;;;6.20;5.60;;;8.40;99.90;;;;;;4994408;28;20233;-82
2023/11/19 06:47:56;;;;;;;5.05;4.65;;;8.40;99.90;;;;;;4993627;28;20218;-79
2023/11/19 06:50:23;;;;;;;5.35;4.85;;;8.40;99.90;;;;;;4994337;28;20246;-79
2023/11/19 06:52:51;;;;;;;6.13;5.38;;;8.40;99.90;;;;;;4993660;28;20242;-79
2023/11/19 06:55:18;;;;;;;4.85;4.45;;;8.50;99.90;;;;;;4994291;28;20309;-79
2023/11/19 06:57:44;;;;;;;5.60;5.10;;;8.50;99.90;;;;;;4992957;28;20238;-82
2023/11/19 07:00:14;;;;;;;6.05;5.55;;;8.50;99.90;;;;;;4993927;28;20306;-82
2023/11/19 07:02:41;;;;;;;5.60;5.20;;;8.60;99.90;;;;;;4993622;28;20256;-80
2023/11/19 07:05:09;;;;;;;5.80;5.38;;;8.60;99.90;;;;;;4994297;28;20305;-79
2023/11/19 07:07:36;;;;;;;5.53;5.03;;;8.60;99.90;;;;;;4993834;28;20656;-81
2023/11/19 07:10:04;;;;;;;5.60;5.05;;;8.60;99.90;;;;;;4992610;28;20722;-81
2023/11/19 07:12:31;;;;;;;5.45;5.05;;;8.60;99.90;;;;;;5001146;28;20652;-79
2023/11/19 07:15:02;;;;;;;5.15;4.75;;;8.60;99.90;;;;;;5013114;28;20309;-81
2023/11/19 07:17:31;;;;;;;5.55;5.15;;;8.70;99.90;;;;;;5013742;28;20230;-79
2023/11/19 07:19:59;;;;;;;5.70;5.20;;;8.70;99.90;;;;;;5013109;28;20708;-82
2023/11/19 07:22:26;;;;;;;9.68;4.85;;;8.70;99.90;;;;;;5013588;28;20253;-81
2023/11/19 07:24:54;;;;;;;5.18;4.68;;;8.70;99.90;;;;;;5013755;28;20260;-82
2023/11/19 07:27:24;;;;;;;5.10;4.70;;;8.80;99.90;;;;;;5013005;28;20270;-79
2023/11/19 07:29:51;;;;;;;5.57;5.07;;;8.80;99.90;;;;;;5013092;28;20555;-79
2023/11/19 07:32:17;;;;;;;5.60;5.20;;;8.80;99.90;;;;;;5013511;28;20230;-81
2023/11/19 07:34:46;;;;;;;3.95;3.65;;;8.80;99.90;;;;;;5012303;28;20772;-79
2023/11/19 07:37:13;;;;;;;4.95;4.50;;;8.90;99.90;;;;;;5013222;28;20241;-81
2023/11/19 07:39:40;;;;;;;4.18;3.88;;;8.90;99.90;;;;;;5012414;28;20229;-79
2023/11/19 07:42:09;;;;;;;4.68;4.28;;;8.90;99.90;;;;;;5013270;28;20296;-79
2023/11/19 07:44:36;;;;;;;5.32;4.93;;;9.00;99.90;;;;;;5013548;28;20240;-79
2023/11/19 07:47:06;;;;;;;5.13;4.65;;;9.00;99.90;;;;;;5012797;28;20678;-79
2023/11/19 07:49:33;;;;;;;4.57;4.18;;;9.00;99.90;;;;;;5005573;28;20227;-79
2023/11/19 07:52:03;;;;;;;4.07;3.78;;;9.10;99.90;;;;;;4995900;28;20226;-79
2023/11/19 07:54:29;;;;;;;4.25;3.95;;;9.10;99.90;;;;;;4997217;28;20595;-79
2023/11/19 07:56:56;;;;;;;4.32;3.92;;;9.10;99.90;;;;;;4996484;28;20727;-79
2023/11/19 07:59:23;;;;;;;4.07;3.72;;;9.20;99.90;;;;;;4996817;28;20293;-78
2023/11/19 08:01:51;;;;;;;4.70;4.30;;;9.20;99.90;;;;;;4995112;28;20277;-79
2023/11/19 08:04:20;;;;;;;4.55;4.25;;;9.20;99.90;;;;;;4996742;28;20226;-79
2023/11/19 08:06:47;;;;;;;5.15;4.75;;;9.30;99.90;;;;;;4995889;28;20219;-79
2023/11/19 08:09:16;;;;;;;5.85;5.35;;;9.30;99.90;;;;;;4996700;28;20680;-79
2023/11/19 08:11:43;;;;;;;5.15;4.75;;;9.30;99.90;;;;;;4996462;28;20261;-82
2023/11/19 08:14:10;;;;;;;4.50;4.20;;;9.30;99.90;;;;;;4996830;28;20305;-82
2023/11/19 08:16:37;;;;;;;4.38;3.97;;;9.30;99.90;;;;;;4996874;28;20277;-82
2023/11/19 08:19:04;;;;;;;4.00;3.70;;;9.40;99.90;;;;;;4995795;28;20227;-82
2023/11/19 08:21:35;;;;;;;4.95;4.35;;;9.50;99.90;;;;;;4996627;28;20233;-79
2023/11/19 08:24:02;;;;;;;4.07;3.67;;;9.50;99.90;;;;;;4996181;28;20257;-82
2023/11/19 08:26:35;;;;;;;4.57;4.28;;;9.60;99.90;;;;;;4996071;28;20562;-81
2023/11/19 08:29:03;;;;;;;4.85;3.88;;;9.60;99.90;;;;;;4995557;28;20322;-79
2023/11/19 08:31:30;;;;;;;4.63;4.22;;;9.70;99.90;;;;;;4996345;28;20223;-79
2023/11/19 08:33:57;;;;;;;6.38;5.88;;;9.80;99.90;;;;;;4996104;28;20317;-82
2023/11/19 08:36:24;;;;;;;5.57;4.95;;;9.80;99.90;;;;;;4996648;28;20695;-82
2023/11/19 08:38:51;;;;;;;5.40;4.97;;;9.90;99.90;;;;;;4995693;28;20255;-80
2023/11/19 08:41:19;;;;;;;5.85;4.07;;;9.90;99.90;;;;;;4996633;28;20316;-79
2023/11/19 08:43:47;;;;;;;4.78;4.47;;;9.90;99.90;;;;;;4996535;28;20725;-79
2023/11/19 08:46:14;;;;;;;4.93;4.53;;;10.00;99.90;;;;;;4995909;28;20557;-78
2023/11/19 08:48:41;;;;;;;5.15;4.65;;;10.00;99.90;;;;;;4995024;28;20250;-79
2023/11/19 08:51:08;;;;;;;4.28;3.95;;;10.10;99.90;;;;;;4994702;28;20298;-82
2023/11/19 08:53:35;;;;;;;6.43;5.00;;;10.10;99.90;;;;;;4994534;28;20752;-82
2023/11/19 08:56:03;;;;;;;5.10;4.70;;;10.20;99.90;;;;;;4995583;28;20587;-79
2023/11/19 08:58:30;;;;;;;4.85;4.45;;;10.30;99.90;;;;;;4996225;28;20253;-77
2023/11/19 09:00:59;;;;;;;5.30;4.90;;;10.40;99.90;;;;;;4984730;28;20699;-78
2023/11/19 09:03:26;;;;;;;4.30;4.00;;;10.40;99.90;;;;;;4995367;28;20529;-78
2023/11/19 09:05:53;;;;;;;13.02;11.02;;;10.40;99.90;;;;;;4994633;28;20297;-78
2023/11/19 09:08:20;;;;;;;9.23;8.32;;;10.40;99.90;;;;;;4996290;28;20305;-83
2023/11/19 09:10:49;;;;;;;6.70;5.70;;;10.50;99.90;;;;;;4996163;28;20233;-79
2023/11/19 09:13:16;;;;;;;5.40;4.90;;;10.40;99.90;;;;;;4995831;28;20235;-82
2023/11/19 09:15:43;;;;;;;7.82;5.57;;;10.50;99.90;;;;;;4996921;28;20226;-82
2023/11/19 09:18:11;;;;;;;8.80;6.90;;;10.50;99.90;;;;;;4996198;28;20231;-82
2023/11/19 09:20:39;;;;;;;6.78;6.07;;;10.50;99.90;;;;;;4994723;28;20273;-82
2023/11/19 09:23:08;;;;;;;6.10;5.57;;;10.60;99.90;;;;;;4994612;28;20317;-79
2023/11/19 09:25:35;;;;;;;5.65;5.15;;;10.60;99.90;;;;;;4995925;28;20759;-82
2023/11/19 09:28:02;;;;;;;5.30;4.85;;;10.60;99.90;;;;;;4995628;28;20239;-81
2023/11/19 09:30:30;;;;;;;6.07;5.47;;;10.70;99.90;;;;;;4995155;28;20258;-81
2023/11/19 09:32:58;;;;;;;6.75;6.15;;;10.70;99.90;;;;;;4997438;28;20238;-82
2023/11/19 09:35:29;;;;;;;6.40;5.78;;;10.70;99.90;;;;;;4995169;28;20277;-78
2023/11/19 09:37:59;;;;;;;6.20;5.65;;;10.80;99.90;;;;;;4995247;28;20222;-79
2023/11/19 09:40:26;;;;;;;4.68;4.28;;;10.90;99.90;;;;;;4995197;28;20227;-83
2023/11/19 09:42:57;;;;;;;10.43;7.75;;;10.90;99.90;;;;;;4986112;28;20234;-80
2023/11/19 09:45:31;;;;;;;7.93;7.13;;;11.00;99.90;;;;;;4975067;28;20231;-82
2023/11/19 09:48:02;;;;;;;7.00;6.40;;;11.00;99.90;;;;;;4994795;28;20293;-83
2023/11/19 09:50:32;;;;;;;5.60;5.10;;;11.10;99.90;;;;;;4995336;28;20219;-82
2023/11/19 09:53:00;;;;;;;5.72;5.22;;;11.20;99.90;;;;;;4993884;28;20233;-81
2023/11/19 09:55:40;;;;;;;4.75;3.90;;;11.30;99.90;;;;;;4995799;28;20300;-82
2023/11/19 09:58:11;;;;;;;3.08;2.80;;;11.30;99.90;;;;;;4994188;28;20574;-82
2023/11/19 10:00:41;;;;;;;5.25;3.95;;;11.40;99.90;;;;;;4994931;28;20692;-82
2023/11/19 10:03:10;;;;;;;3.83;3.47;;;11.50;99.90;;;;;;4994286;28;20235;-78
2023/11/19 10:05:40;;;;;;;3.63;3.33;;;11.60;99.90;;;;;;4994681;28;20285;-79
2023/11/19 10:08:10;;;;;;;3.97;3.30;;;11.60;99.90;;;;;;4993577;28;20531;-83
2023/11/19 10:10:37;;;;;;;3.30;3.10;;;11.70;99.90;;;;;;4994496;28;20427;-82
2023/11/19 10:13:19;;;;;;;3.00;2.80;;;11.80;99.90;;;;;;5000599;28;20241;-78
2023/11/19 10:15:54;;;;;;;3.35;3.00;;;11.80;99.90;;;;;;4994624;28;20227;-82
2023/11/19 10:18:25;;;;;;;3.60;3.35;;;11.90;99.90;;;;;;4994376;28;20230;-78
2023/11/19 10:20:56;;;;;;;3.05;2.85;;;12.00;99.90;;;;;;4995421;28;20227;-82
2023/11/19 10:23:23;;;;;;;9.40;3.42;;;12.10;99.90;;;;;;4994424;28;20234;-83
2023/11/19 10:25:54;;;;;;;5.43;2.75;;;12.10;99.90;;;;;;4994696;28;20540;-78
2023/11/19 10:28:21;;;;;;;5.13;3.22;;;12.20;99.90;;;;;;4991463;28;20273;-79
2023/11/19 10:30:50;;;;;;;18.33;13.82;;;12.20;99.90;;;;;;4994515;28;20350;-79
2023/11/19 10:33:24;;;;;;;11.25;7.47;;;12.30;99.90;;;;;;4993249;28;20231;-80
2023/11/19 10:36:03;;;;;;;4.13;3.78;;;12.30;99.90;;;;;;4996612;28;20246;-81
2023/11/19 10:38:30;;;;;;;3.97;3.10;;;12.40;99.90;;;;;;4996011;28;20728;-78
2023/11/19 10:40:59;;;;;;;5.80;2.80;;;12.50;99.90;;;;;;4985184;28;20237;-78
2023/11/19 10:43:27;;;;;;;3.75;2.80;;;12.60;99.90;;;;;;4993371;28;20222;-82
2023/11/19 10:45:57;;;;;;;3.03;2.80;;;12.60;99.90;;;;;;4995255;28;20541;-78
2023/11/19 10:48:27;;;;;;;7.03;5.93;;;12.70;99.90;;;;;;4993759;28;20230;-83
2023/11/19 10:50:57;;;;;;;8.82;6.95;;;12.80;99.90;;;;;;4995586;28;20257;-82
2023/11/19 10:53:26;;;;;;;10.50;6.95;;;12.80;99.90;;;;;;4995582;28;20238;-82
2023/11/19 10:56:01;;;;;;;7.85;5.28;;;12.90;99.90;;;;;;4993996;28;20230;-79
2023/11/19 10:58:34;;;;;;;6.18;4.20;;;13.00;99.90;;;;;;4990409;28;20226;-83
2023/11/19 11:01:06;;;;;;;6.15;3.95;;;13.00;99.90;;;;;;4983790;28;20234;-83
2023/11/19 11:03:43;;;;;;;5.85;3.22;;;13.10;99.90;;;;;;4993704;28;20226;-79
2023/11/19 11:06:13;;;;;;;7.15;3.30;;;13.20;99.90;;;;;;4994232;28;20219;-79
2023/11/19 11:08:50;;;;;;;5.88;3.00;;;13.20;99.90;;;;;;4994089;28;20553;-80
2023/11/19 11:11:20;;;;;;;7.70;2.85;;;13.30;99.90;;;;;;4986887;28;20305;-79
2023/11/19 11:13:58;;;;;;;9.10;3.30;;;13.40;99.90;;;;;;4993782;28;20602;-79
2023/11/19 11:16:27;;;;;;;5.23;2.97;;;13.40;99.90;;;;;;4983779;28;20482;-79
2023/11/19 11:18:57;;;;;;;10.10;3.40;;;13.40;99.90;;;;;;4994310;28;20797;-79
2023/11/19 11:21:28;;;;;;;9.15;3.28;;;13.50;99.90;;;;;;4994270;28;20493;-79
2023/11/19 11:24:26;;;;;;;9.40;4.20;;;13.60;99.90;;;;;;4994377;28;20229;-79
2023/11/19 11:27:21;;;;;;;5.88;3.67;;;13.60;99.90;;;;;;4994854;28;20493;-82
2023/11/19 11:29:58;;;;;;;4.65;3.05;;;13.70;99.90;;;;;;4986955;28;20230;-82
2023/11/19 11:32:42;;;;;;;8.70;3.92;;;13.70;99.90;;;;;;4997477;28;20226;-82
2023/11/19 11:35:27;;;;;;;8.73;4.50;;;13.80;99.90;;;;;;4997855;28;20230;-79
2023/11/19 11:38:04;;;;;;;6.13;3.63;;;13.80;99.90;;;;;;4998432;28;20289;-79
2023/11/19 11:40:31;;;;;;;7.10;3.15;;;13.80;99.90;;;;;;4997946;28;21034;-79
2023/11/19 11:42:59;;;;;;;5.82;4.13;;;13.90;99.90;;;;;;4997999;28;20250;-82
2023/11/19 11:46:01;;;;;;;6.32;5.60;;;13.90;99.90;;;;;;4997654;28;20225;-78
2023/11/19 11:48:31;;;;;;;10.50;7.00;;;13.90;99.90;;;;;;4996745;28;20282;-78
2023/11/19 11:50:59;;;;;;;12.35;7.60;;;14.00;99.90;;;;;;4997778;28;20470;-79
2023/11/19 11:53:37;;;;;;;17.70;7.20;;;14.00;99.90;;;;;;4996657;28;20313;-83
2023/11/19 11:56:22;;;;;;;9.98;5.78;;;14.10;99.90;;;;;;4997816;28;20480;-80
2023/11/19 11:58:50;;;;;;;7.23;4.37;;;14.10;99.90;;;;;;5000544;28;20223;-81
2023/11/19 12:01:20;;;;;;;10.67;4.07;;;14.20;99.90;;;;;;4964925;28;20469;-82
2023/11/19 12:03:47;;;;;;;12.10;5.43;;;14.20;99.90;;;;;;4997256;28;20473;-78
2023/11/19 12:06:14;;;;;;;8.73;4.95;;;14.30;99.90;;;;;;4995436;28;20466;-78
2023/11/19 12:08:43;;;;;;;10.10;4.50;;;14.30;99.90;;;;;;4997457;28;20246;-82
2023/11/19 12:11:10;;;;;;;14.18;6.65;;;14.40;99.90;;;;;;4997186;28;20465;-82
2023/11/19 12:13:56;;;;;;;11.07;4.47;;;14.40;99.90;;;;;;4996759;28;20325;-83
2023/11/19 12:16:27;;;;;;;9.20;4.27;;;14.40;99.90;;;;;;4996321;28;20233;-79
2023/11/19 12:18:58;;;;;;;14.00;5.63;;;14.50;99.90;;;;;;4996796;28;20532;-79
2023/11/19 12:21:30;;;;;;;7.07;4.43;;;14.50;99.90;;;;;;4995917;28;20548;-79
2023/11/19 12:24:03;;;;;;;11.60;5.77;;;14.50;99.90;;;;;;4996539;28;20478;-79
2023/11/19 12:26:35;;;;;;;12.00;5.37;;;14.50;99.90;;;;;;4995968;28;20454;-82
2023/11/19 12:29:05;;;;;;;20.23;7.17;;;14.60;99.90;;;;;;4995131;28;20473;-79
2023/11/19 12:31:35;;;;;;;8.23;4.60;;;14.60;99.90;;;;;;4996157;28;20962;-79
2023/11/19 12:34:23;;;;;;;9.67;4.60;;;14.60;99.90;;;;;;4996378;28;20462;-80
2023/11/19 12:36:56;;;;;;;12.20;5.40;;;14.60;99.90;;;;;;4997141;28;20541;-82
2023/11/19 12:39:25;;;;;;;10.90;5.50;;;14.60;99.90;;;;;;4996457;28;20470;-82
2023/11/19 12:41:54;;;;;;;11.40;5.27;;;14.60;99.90;;;;;;4988471;28;20544;-82
2023/11/19 12:44:21;;;;;;;8.47;4.67;;;14.60;99.90;;;;;;4996262;28;20799;-82
2023/11/19 12:47:01;;;;;;;7.23;3.50;;;14.70;99.90;;;;;;4996524;28;20857;-82
2023/11/19 12:49:28;;;;;;;9.10;3.53;;;14.60;99.90;;;;;;4996628;28;20466;-79
2023/11/19 12:51:55;;;;;;;12.07;5.17;;;14.60;99.90;;;;;;4996774;28;20478;-82
2023/11/19 12:54:34;;;;;;;12.40;4.17;;;14.50;99.90;;;;;;4995980;28;20474;-79
2023/11/19 12:57:19;;;;;;;;;;;;;;;;;;;;;
2023/11/19 12:59:56;;;;;;;12.10;5.27;;;14.50;99.90;;;;;;4996413;28;20466;-83
2023/11/19 13:02:24;;;;;;;19.03;3.97;;;14.50;99.90;;;;;;4995456;28;20485;-79
2023/11/19 13:04:51;;;;;;;9.53;4.90;;;14.50;99.90;;;;;;4995823;28;20547;-79
2023/11/19 13:07:22;;;;;;;14.00;4.57;;;14.50;99.90;;;;;;4995356;28;20841;-79
2023/11/19 13:09:53;;;;;;;8.20;3.60;;;14.50;99.90;;;;;;4995738;28;20480;-79
2023/11/19 13:12:20;;;;;;;14.67;4.90;;;14.50;99.90;;;;;;4994466;28;20470;-79
2023/11/19 13:14:49;;;;;;;10.67;4.20;;;14.50;99.90;;;;;;4995261;28;20474;-79
2023/11/19 13:17:19;;;;;;;9.17;4.13;;;14.50;99.90;;;;;;4994881;28;20470;-79
2023/11/19 13:19:50;;;;;;;10.50;4.77;;;14.50;99.90;;;;;;4995293;28;20480;-79
2023/11/19 13:22:17;;;;;;;18.53;4.93;;;14.40;99.90;;;;;;4994544;28;20493;-78